createdAt,value
2023-03-29T00:00:46.389Z,11.89
2023-03-29T00:03:17.059Z,11.70
2023-03-29T00:05:43.924Z,11.71
2023-03-29T00:08:10.650Z,11.77
2023-03-29T00:10:37.344Z,11.81
2023-03-29T00:13:06.679Z,11.73
2023-03-29T00:15:33.503Z,11.77
2023-03-29T00:18:06.846Z,11.68
2023-03-29T00:20:33.624Z,11.73
2023-03-29T00:23:00.365Z,11.75
2023-03-29T00:25:36.344Z,11.65
2023-03-29T00:28:03.042Z,11.51
2023-03-29T00:30:29.716Z,11.58
2023-03-29T00:32:56.599Z,11.51
2023-03-29T00:35:26.320Z,11.62
2023-03-29T00:37:53.128Z,11.64
2023-03-29T00:40:19.906Z,11.61
2023-03-29T00:42:46.908Z,11.54
2023-03-29T00:45:13.559Z,11.58
2023-03-29T00:48:04.372Z,11.59
2023-03-29T00:50:47.278Z,11.66
2023-03-29T00:53:40.620Z,11.78
2023-03-29T00:56:29.542Z,11.95
2023-03-29T00:59:05.887Z,11.91
2023-03-29T01:01:59.372Z,11.91
2023-03-29T01:07:28.244Z,12.00
2023-03-29T01:10:13.524Z,11.97
2023-03-29T01:13:05.638Z,12.02
2023-03-29T01:15:33.599Z,11.95
2023-03-29T01:18:00.349Z,11.97
2023-03-29T01:20:38.837Z,12.00
2023-03-29T01:23:34.378Z,12.08
2023-03-29T01:26:22.122Z,12.08
2023-03-29T01:29:03.742Z,12.11
2023-03-29T01:31:40.785Z,12.19
2023-03-29T01:34:43.100Z,12.36
2023-03-29T01:37:16.642Z,12.43
2023-03-29T01:40:08.925Z,12.45
2023-03-29T01:49:28.484Z,12.37
2023-03-29T01:52:14.353Z,12.26
2023-03-29T01:54:52.132Z,12.18
2023-03-29T01:57:19.829Z,12.34
2023-03-29T01:59:55.691Z,12.19
2023-03-29T02:02:27.004Z,12.27
2023-03-29T02:04:57.927Z,12.30
2023-03-29T02:07:28.515Z,12.34
2023-03-29T02:09:55.513Z,12.41
2023-03-29T02:12:22.538Z,12.28
2023-03-29T02:14:49.563Z,12.28
2023-03-29T02:17:28.187Z,12.13
2023-03-29T02:20:13.047Z,12.05
2023-03-29T02:23:13.243Z,12.18
2023-03-29T02:25:41.010Z,12.24
2023-03-29T02:28:07.967Z,12.25
2023-03-29T02:31:10.737Z,12.26
2023-03-29T02:33:48.554Z,12.39
2023-03-29T02:39:22.993Z,12.37
2023-03-29T02:42:00.946Z,12.51
2023-03-29T02:44:34.696Z,12.42
2023-03-29T02:47:40.349Z,12.46
2023-03-29T02:50:08.058Z,12.33
2023-03-29T02:52:43.247Z,12.29
2023-03-29T02:55:30.871Z,12.36
2023-03-29T02:58:03.505Z,12.24
2023-03-29T03:00:31.251Z,12.18
2023-03-29T03:03:02.053Z,12.17
2023-03-29T03:06:11.431Z,12.09
2023-03-29T03:09:02.359Z,12.02
2023-03-29T03:11:38.057Z,12.04
2023-03-29T03:14:10.641Z,12.03
2023-03-29T03:16:39.238Z,11.97
2023-03-29T03:19:09.278Z,11.90
2023-03-29T03:21:39.085Z,11.82
2023-03-29T03:24:10.525Z,11.81
2023-03-29T03:26:39.223Z,11.87
2023-03-29T03:29:06.046Z,11.89
2023-03-29T03:31:32.841Z,11.84
2023-03-29T03:34:06.625Z,11.75
2023-03-29T03:36:38.349Z,11.76
2023-03-29T03:39:05.281Z,11.80
2023-03-29T03:41:32.197Z,11.79
2023-03-29T03:46:39.713Z,11.91
2023-03-29T03:49:13.443Z,11.63
2023-03-29T03:51:42.444Z,11.52
2023-03-29T03:54:09.620Z,11.39
2023-03-29T03:56:40.323Z,11.43
2023-03-29T03:59:07.354Z,11.46
2023-03-29T04:01:34.128Z,11.45
2023-03-29T04:04:03.934Z,11.42
2023-03-29T04:06:31.418Z,11.42
2023-03-29T04:09:04.954Z,11.42
2023-03-29T04:11:43.777Z,11.40
2023-03-29T04:14:28.045Z,11.26
2023-03-29T04:17:03.325Z,11.25
2023-03-29T04:19:55.289Z,11.20
2023-03-29T04:22:30.460Z,11.04
2023-03-29T04:24:57.325Z,11.12
2023-03-29T04:27:26.234Z,11.07
2023-03-29T04:29:52.952Z,11.01
2023-03-29T04:32:19.644Z,11.08
2023-03-29T04:34:46.409Z,11.11
2023-03-29T04:37:20.316Z,11.09
2023-03-29T04:39:54.481Z,11.18
2023-03-29T04:42:24.056Z,11.29
2023-03-29T04:45:00.551Z,11.17
2023-03-29T04:50:47.135Z,11.14
2023-03-29T04:56:17.592Z,11.11
2023-03-29T04:58:44.351Z,11.03
2023-03-29T05:04:21.184Z,10.86
2023-03-29T05:15:42.039Z,10.92
2023-03-29T05:18:25.659Z,10.87
2023-03-29T05:20:56.008Z,10.89
2023-03-29T05:23:26.022Z,10.81
2023-03-29T05:25:53.075Z,10.84
2023-03-29T05:28:20.243Z,10.78
2023-03-29T05:30:50.248Z,10.71
2023-03-29T05:33:24.932Z,10.75
2023-03-29T05:36:29.639Z,10.74
2023-03-29T05:38:58.611Z,10.68
2023-03-29T05:41:28.616Z,10.66
2023-03-29T05:43:58.210Z,10.67
2023-03-29T05:46:24.948Z,10.67
2023-03-29T05:49:04.786Z,10.71
2023-03-29T05:51:31.509Z,10.76
2023-03-29T05:54:05.750Z,10.82
2023-03-29T05:56:46.356Z,10.71
2023-03-29T05:59:14.197Z,10.80
2023-03-29T06:04:33.491Z,10.62
2023-03-29T06:07:00.357Z,10.68
2023-03-29T06:09:29.883Z,10.71
2023-03-29T06:11:56.552Z,10.72
2023-03-29T06:14:23.288Z,10.84
2023-03-29T06:17:03.020Z,10.84
2023-03-29T06:22:43.331Z,11.30
2023-03-29T06:25:10.413Z,11.33
2023-03-29T06:27:44.716Z,11.42
2023-03-29T06:30:29.578Z,11.61
2023-03-29T06:33:09.010Z,11.83
2023-03-29T06:35:47.442Z,12.00
2023-03-29T06:38:25.633Z,12.34
2023-03-29T06:41:12.121Z,12.28
2023-03-29T06:43:42.022Z,12.49
2023-03-29T06:46:09.005Z,12.76
2023-03-29T06:49:05.156Z,12.82
2023-03-29T06:51:52.394Z,12.93
2023-03-29T06:54:21.180Z,12.93
2023-03-29T06:56:49.195Z,12.83
2023-03-29T06:59:16.032Z,13.00
2023-03-29T07:01:43.204Z,13.17
2023-03-29T07:04:14.145Z,13.17
2023-03-29T07:06:51.585Z,13.21
2023-03-29T07:09:28.745Z,13.30
2023-03-29T07:12:07.474Z,13.37
2023-03-29T07:20:27.892Z,13.60
2023-03-29T07:22:55.281Z,13.90
2023-03-29T07:28:12.086Z,14.23
2023-03-29T07:30:38.929Z,14.57
2023-03-29T07:33:05.780Z,14.63
2023-03-29T07:35:32.793Z,14.58
2023-03-29T07:38:07.196Z,14.74
2023-03-29T07:40:34.051Z,14.76
2023-03-29T07:43:06.138Z,14.93
2023-03-29T07:45:33.001Z,15.01
2023-03-29T07:48:06.324Z,15.14
2023-03-29T07:50:33.070Z,15.30
2023-03-29T07:53:02.900Z,15.18
2023-03-29T07:55:35.615Z,15.35
2023-03-29T07:58:02.868Z,15.30
2023-03-29T08:00:33.345Z,15.32
2023-03-29T08:03:02.141Z,15.36
2023-03-29T08:05:40.825Z,15.42
2023-03-29T08:08:10.039Z,15.50
2023-03-29T08:10:46.685Z,15.48
2023-03-29T08:13:13.511Z,15.51
2023-03-29T08:15:55.261Z,15.53
2023-03-29T08:18:27.591Z,15.42
2023-03-29T08:21:04.445Z,15.46
2023-03-29T08:23:32.225Z,15.54
2023-03-29T08:26:08.073Z,15.50
2023-03-29T08:28:37.822Z,15.57
2023-03-29T08:31:07.177Z,15.62
2023-03-29T08:33:36.699Z,15.64
2023-03-29T08:36:04.227Z,15.65
2023-03-29T08:38:31.176Z,15.54
2023-03-29T08:41:14.203Z,15.56
2023-03-29T08:44:35.773Z,15.43
2023-03-29T08:47:24.188Z,15.43
2023-03-29T08:49:55.692Z,15.50
2023-03-29T08:52:35.862Z,15.55
2023-03-29T08:55:08.528Z,15.50
2023-03-29T08:57:46.500Z,15.46
2023-03-29T09:00:39.224Z,15.52
2023-03-29T09:03:30.624Z,15.53
2023-03-29T09:06:06.679Z,15.50
2023-03-29T09:08:43.046Z,15.55
2023-03-29T09:11:28.446Z,15.48
2023-03-29T09:14:21.146Z,15.29
2023-03-29T09:17:14.130Z,15.26
2023-03-29T09:20:13.384Z,15.35
2023-03-29T09:23:02.406Z,15.23
2023-03-29T09:25:59.367Z,15.44
2023-03-29T09:28:37.828Z,15.50
2023-03-29T09:31:37.890Z,15.31
2023-03-29T09:34:45.376Z,15.41
2023-03-29T09:37:27.642Z,15.51
2023-03-29T09:39:55.237Z,15.59
2023-03-29T09:42:28.555Z,15.54
2023-03-29T09:45:05.876Z,15.52
2023-03-29T09:47:40.443Z,15.38
2023-03-29T09:50:30.342Z,15.61
2023-03-29T09:53:06.785Z,15.55
2023-03-29T09:55:36.431Z,15.51
2023-03-29T09:58:15.082Z,15.52
2023-03-29T10:00:42.441Z,15.55
2023-03-29T10:03:11.632Z,15.59
2023-03-29T10:05:47.281Z,15.70
2023-03-29T10:08:20.289Z,15.65
2023-03-29T10:10:47.390Z,15.81
2023-03-29T10:13:22.278Z,15.92
2023-03-29T10:16:22.831Z,15.75
2023-03-29T10:18:52.759Z,15.70
2023-03-29T10:21:25.267Z,15.81
2023-03-29T10:23:58.480Z,15.79
2023-03-29T10:26:37.000Z,15.85
2023-03-29T10:29:19.084Z,15.87
2023-03-29T10:31:51.792Z,15.96
2023-03-29T10:34:30.661Z,15.93
2023-03-29T10:37:06.888Z,15.87
2023-03-29T10:39:37.775Z,15.89
2023-03-29T10:42:04.902Z,16.13
2023-03-29T10:44:39.818Z,16.15
2023-03-29T10:52:46.024Z,15.99
2023-03-29T10:55:13.932Z,16.32
2023-03-29T10:57:52.490Z,16.34
2023-03-29T11:00:30.480Z,16.38
2023-03-29T11:03:21.003Z,16.52
2023-03-29T11:06:01.569Z,16.42
2023-03-29T11:08:58.883Z,16.29
2023-03-29T11:11:38.452Z,16.44
2023-03-29T11:14:53.420Z,16.47
2023-03-29T11:17:46.750Z,16.25
2023-03-29T11:20:30.151Z,16.20
2023-03-29T11:23:21.569Z,16.44
2023-03-29T11:26:21.624Z,16.42
2023-03-29T11:29:10.482Z,16.20
2023-03-29T11:32:14.727Z,16.21
2023-03-29T11:35:06.048Z,16.32
2023-03-29T11:37:54.123Z,16.50
2023-03-29T11:40:46.639Z,16.41
2023-03-29T11:43:24.253Z,16.30
2023-03-29T11:46:00.537Z,16.17
2023-03-29T11:48:39.558Z,16.28
2023-03-29T11:51:14.348Z,16.30
2023-03-29T11:53:57.790Z,16.43
2023-03-29T11:57:19.604Z,16.51
2023-03-29T12:00:14.725Z,16.59
2023-03-29T12:02:48.611Z,16.74
2023-03-29T12:05:32.481Z,16.88
2023-03-29T12:08:25.528Z,16.97
2023-03-29T12:11:25.779Z,16.92
2023-03-29T12:14:27.333Z,16.88
2023-03-29T12:17:02.061Z,16.81
2023-03-29T12:19:56.365Z,16.73
2023-03-29T12:22:25.478Z,16.70
2023-03-29T12:24:56.015Z,16.60
2023-03-29T12:27:31.941Z,17.02
2023-03-29T12:30:19.100Z,16.87
2023-03-29T12:32:53.570Z,17.12
2023-03-29T12:35:45.579Z,16.78
2023-03-29T12:38:31.086Z,17.00
2023-03-29T12:41:10.373Z,16.81
2023-03-29T12:43:40.024Z,16.80
2023-03-29T12:46:09.870Z,16.87
2023-03-29T12:48:41.232Z,16.92
2023-03-29T12:51:17.763Z,17.03
2023-03-29T12:53:51.195Z,16.80
2023-03-29T12:56:41.038Z,16.88
2023-03-29T12:59:12.634Z,17.00
2023-03-29T13:01:40.526Z,17.05
2023-03-29T13:04:36.021Z,17.00
2023-03-29T13:07:08.716Z,16.98
2023-03-29T13:09:51.638Z,16.93
2023-03-29T13:12:24.479Z,17.00
2023-03-29T13:15:21.637Z,16.90
2023-03-29T13:18:03.963Z,16.89
2023-03-29T13:20:41.671Z,17.07
2023-03-29T13:23:20.429Z,16.86
2023-03-29T13:26:07.245Z,16.75
2023-03-29T13:28:45.240Z,16.79
2023-03-29T13:31:49.742Z,17.07
2023-03-29T13:34:57.961Z,16.80
2023-03-29T13:37:53.838Z,16.82
2023-03-29T13:40:41.997Z,16.80
2023-03-29T13:43:32.889Z,16.72
2023-03-29T13:45:59.606Z,16.71
2023-03-29T13:48:39.438Z,17.07
2023-03-29T13:51:20.390Z,16.98
2023-03-29T13:54:28.674Z,16.84
2023-03-29T13:57:22.530Z,17.01
2023-03-29T14:00:07.906Z,17.23
2023-03-29T14:03:00.279Z,16.96
2023-03-29T14:05:44.277Z,16.94
2023-03-29T14:08:40.500Z,17.10
2023-03-29T14:11:24.627Z,17.07
2023-03-29T14:14:18.230Z,16.88
2023-03-29T14:16:51.667Z,16.78
2023-03-29T14:19:42.980Z,16.86
2023-03-29T14:25:06.392Z,17.04
2023-03-29T14:27:40.921Z,17.27
2023-03-29T14:30:26.841Z,17.22
2023-03-29T14:32:54.905Z,17.38
2023-03-29T14:35:44.437Z,17.16
2023-03-29T14:38:18.581Z,17.13
2023-03-29T14:41:01.211Z,17.09
2023-03-29T14:43:30.723Z,17.12
2023-03-29T14:46:02.297Z,17.33
2023-03-29T14:48:57.439Z,17.51
2023-03-29T14:51:43.388Z,17.41
2023-03-29T14:54:45.922Z,17.48
2023-03-29T14:57:23.688Z,17.18
2023-03-29T15:00:03.542Z,17.06
2023-03-29T15:02:34.435Z,17.32
2023-03-29T15:05:02.572Z,17.25
2023-03-29T15:07:36.809Z,17.23
2023-03-29T15:10:08.771Z,17.39
2023-03-29T15:12:47.882Z,17.30
2023-03-29T15:15:15.092Z,17.41
2023-03-29T15:17:53.607Z,17.43
2023-03-29T15:20:28.564Z,17.43
2023-03-29T15:23:28.409Z,17.32
2023-03-29T15:26:06.376Z,17.17
2023-03-29T15:28:45.669Z,17.11
2023-03-29T15:31:19.158Z,17.25
2023-03-29T15:33:46.535Z,17.21
2023-03-29T15:36:14.837Z,17.13
2023-03-29T15:38:45.353Z,17.14
2023-03-29T15:41:16.109Z,17.21
2023-03-29T15:43:45.637Z,17.40
2023-03-29T15:46:16.927Z,17.16
2023-03-29T15:48:52.124Z,17.31
2023-03-29T15:51:22.317Z,17.19
2023-03-29T15:53:55.438Z,17.24
2023-03-29T15:56:25.151Z,17.25
2023-03-29T15:58:54.960Z,17.44
2023-03-29T16:01:34.053Z,17.25
2023-03-29T16:04:05.398Z,17.26
2023-03-29T16:06:35.890Z,17.20
2023-03-29T16:09:03.009Z,17.23
2023-03-29T16:11:29.889Z,17.21
2023-03-29T16:13:57.074Z,17.23
2023-03-29T16:16:24.827Z,17.21
2023-03-29T16:18:54.637Z,17.11
2023-03-29T16:21:22.910Z,17.06
2023-03-29T16:23:50.527Z,17.17
2023-03-29T16:26:23.931Z,17.13
2023-03-29T16:28:50.718Z,17.18
2023-03-29T16:31:17.607Z,17.10
2023-03-29T16:33:44.410Z,17.18
2023-03-29T16:36:13.809Z,16.99
2023-03-29T16:41:27.394Z,17.09
2023-03-29T16:44:02.643Z,16.90
2023-03-29T16:46:36.649Z,16.91
2023-03-29T16:49:12.212Z,16.90
2023-03-29T16:51:38.969Z,16.90
2023-03-29T16:54:05.717Z,16.84
2023-03-29T16:56:32.792Z,16.52
2023-03-29T16:58:59.552Z,16.58
2023-03-29T17:01:37.720Z,16.82
2023-03-29T17:04:05.050Z,16.50
2023-03-29T17:06:31.865Z,16.47
2023-03-29T17:09:05.853Z,16.42
2023-03-29T17:11:40.357Z,16.29
2023-03-29T17:14:09.603Z,16.37
2023-03-29T17:16:36.638Z,16.45
2023-03-29T17:19:03.535Z,16.24
2023-03-29T17:21:37.604Z,16.25
2023-03-29T17:24:04.510Z,16.29
2023-03-29T17:26:34.629Z,16.47
2023-03-29T17:29:03.635Z,16.37
2023-03-29T17:31:30.549Z,16.17
2023-03-29T17:33:57.327Z,16.09
2023-03-29T17:36:24.325Z,15.86
2023-03-29T17:38:51.551Z,15.87
2023-03-29T17:41:20.270Z,16.05
2023-03-29T17:43:47.646Z,15.81
2023-03-29T17:46:14.839Z,15.74
2023-03-29T17:48:44.194Z,15.78
2023-03-29T17:51:10.985Z,15.78
2023-03-29T17:53:37.753Z,15.82
2023-03-29T17:56:12.035Z,15.87
2023-03-29T17:58:45.296Z,15.91
2023-03-29T18:01:13.577Z,15.92
2023-03-29T18:03:40.468Z,15.79
2023-03-29T18:06:12.978Z,15.87
2023-03-29T18:08:39.934Z,15.83
2023-03-29T18:11:09.959Z,15.78
2023-03-29T18:13:36.741Z,15.79
2023-03-29T18:16:08.887Z,15.76
2023-03-29T18:18:35.686Z,15.65
2023-03-29T18:21:07.211Z,15.79
2023-03-29T18:23:35.244Z,15.69
2023-03-29T18:26:06.102Z,15.73
2023-03-29T18:28:34.918Z,15.84
2023-03-29T18:31:08.653Z,15.64
2023-03-29T18:33:47.465Z,15.55
2023-03-29T18:36:20.832Z,15.53
2023-03-29T18:39:07.839Z,15.46
2023-03-29T18:41:35.533Z,15.47
2023-03-29T18:44:02.387Z,15.42
2023-03-29T18:46:32.148Z,15.42
2023-03-29T18:49:04.040Z,15.34
2023-03-29T18:51:34.889Z,15.19
2023-03-29T18:54:07.721Z,15.19
2023-03-29T18:56:34.774Z,15.15
2023-03-29T18:59:01.601Z,15.15
2023-03-29T19:01:31.382Z,15.15
2023-03-29T19:04:21.475Z,15.26
2023-03-29T19:06:51.223Z,15.19
2023-03-29T19:09:20.508Z,15.22
2023-03-29T19:11:57.971Z,15.27
2023-03-29T19:14:24.821Z,15.15
2023-03-29T19:16:54.779Z,15.17
2023-03-29T19:19:25.597Z,15.24
2023-03-29T19:21:57.056Z,15.27
2023-03-29T19:24:31.270Z,15.25
2023-03-29T19:27:00.557Z,15.21
2023-03-29T19:29:32.482Z,15.19
2023-03-29T19:31:59.230Z,15.15
2023-03-29T19:34:30.839Z,15.16
2023-03-29T19:36:57.817Z,15.11
2023-03-29T19:39:26.308Z,15.20
2023-03-29T19:41:56.890Z,15.18
2023-03-29T19:44:23.881Z,15.15
2023-03-29T19:46:54.226Z,15.18
2023-03-29T19:49:25.780Z,15.10
2023-03-29T19:51:58.344Z,15.03
2023-03-29T19:54:29.226Z,14.98
2023-03-29T19:57:00.643Z,14.92
2023-03-29T19:59:33.830Z,14.93
2023-03-29T20:02:03.628Z,14.89
2023-03-29T20:04:34.980Z,15.04
2023-03-29T20:07:03.176Z,15.09
2023-03-29T20:09:38.839Z,14.97
2023-03-29T20:12:13.646Z,14.93
2023-03-29T20:14:41.854Z,14.90
2023-03-29T20:17:14.723Z,14.95
2023-03-29T20:19:50.204Z,14.96
2023-03-29T20:22:16.971Z,14.86
2023-03-29T20:24:43.683Z,14.88
2023-03-29T20:27:10.445Z,14.98
2023-03-29T20:29:38.628Z,15.09
2023-03-29T20:32:10.275Z,14.91
2023-03-29T20:34:37.266Z,14.87
2023-03-29T20:37:04.088Z,14.87
2023-03-29T20:39:50.304Z,14.80
2023-03-29T20:42:17.086Z,14.76
2023-03-29T20:44:43.870Z,14.89
2023-03-29T20:47:21.305Z,14.83
2023-03-29T20:49:59.402Z,14.95
2023-03-29T20:52:26.167Z,14.96
2023-03-29T20:54:54.309Z,14.96
2023-03-29T20:57:23.083Z,14.95
2023-03-29T20:59:55.936Z,14.97
2023-03-29T21:02:28.736Z,14.88
2023-03-29T21:05:09.622Z,14.90
2023-03-29T21:07:37.253Z,14.98
2023-03-29T21:10:05.165Z,14.97
2023-03-29T21:12:31.882Z,14.94
2023-03-29T21:14:58.827Z,15.03
2023-03-29T21:17:34.075Z,14.92
2023-03-29T21:20:04.986Z,14.96
2023-03-29T21:22:34.960Z,15.06
2023-03-29T21:25:01.784Z,14.95
2023-03-29T21:27:28.684Z,14.91
2023-03-29T21:29:55.626Z,14.97
2023-03-29T21:32:27.320Z,14.97
2023-03-29T21:35:32.678Z,14.92
2023-03-29T21:38:18.012Z,14.93
2023-03-29T21:40:48.798Z,14.88
2023-03-29T21:43:28.386Z,14.79
2023-03-29T21:45:55.505Z,14.90
2023-03-29T21:48:32.991Z,14.92
2023-03-29T21:51:03.228Z,14.91
2023-03-29T21:53:34.990Z,14.98
2023-03-29T21:56:05.187Z,14.94
2023-03-29T21:58:35.763Z,14.92
2023-03-29T22:01:02.962Z,14.93
2023-03-29T22:03:33.551Z,14.84
2023-03-29T22:06:03.160Z,14.89
2023-03-29T22:08:39.067Z,14.92
2023-03-29T22:11:12.201Z,14.97
2023-03-29T22:13:46.369Z,14.95
2023-03-29T22:16:13.975Z,14.98
2023-03-29T22:18:47.764Z,14.81
2023-03-29T22:21:17.456Z,15.07
2023-03-29T22:23:47.172Z,14.94
2023-03-29T22:26:15.310Z,14.89
2023-03-29T22:29:02.392Z,14.93
2023-03-29T22:31:37.019Z,14.89
2023-03-29T22:34:04.021Z,15.01
2023-03-29T22:36:34.160Z,14.94
2023-03-29T22:39:03.899Z,14.90
2023-03-29T22:41:30.786Z,14.90
2023-03-29T22:43:59.358Z,14.91
2023-03-29T22:46:34.859Z,14.87
2023-03-29T22:49:12.533Z,14.91
2023-03-29T22:51:39.342Z,14.93
2023-03-29T22:54:06.159Z,14.91
2023-03-29T22:56:41.049Z,14.83
2023-03-29T22:59:07.806Z,14.89
2023-03-29T23:01:35.249Z,14.82
2023-03-29T23:04:02.053Z,14.82
2023-03-29T23:06:38.862Z,14.85
2023-03-29T23:09:05.598Z,14.92
2023-03-29T23:11:35.658Z,14.90
2023-03-29T23:14:31.147Z,14.88
2023-03-29T23:17:00.460Z,14.88
2023-03-29T23:19:43.670Z,14.86
2023-03-29T23:22:28.565Z,14.93
2023-03-29T23:24:58.295Z,14.80
2023-03-29T23:27:25.122Z,14.82
2023-03-29T23:29:54.735Z,14.88
2023-03-29T23:32:23.712Z,15.01
2023-03-29T23:34:50.463Z,14.93
2023-03-29T23:37:27.291Z,14.92
2023-03-29T23:39:55.049Z,14.92
2023-03-29T23:42:21.945Z,14.88
2023-03-29T23:44:51.458Z,14.88
2023-03-29T23:47:18.179Z,14.92
2023-03-29T23:49:44.881Z,14.79
2023-03-29T23:52:11.581Z,14.77
2023-03-29T23:54:40.861Z,14.84
2023-03-29T23:57:10.483Z,14.76
2023-03-29T23:59:39.771Z,14.80
